Time;durP1;ratioP1;P1;durP2;ratioP2;P2;SDS_P1;SDS_P2;PMS_P1;PMS_P2;Temp;Humidity;BMP_temperature;BMP_pressure;BME280_temperature;BME280_humidity;BME280_pressure;Samples;Min_cycle;Max_cycle;Signal;HPM_P1;HPM_P2
2023/06/27 00:00:57;;;;;;;3.92;1.80;;;;;;;14.85;91.82;101906.13;5051009;28;20032;-73
2023/06/27 00:03:43;;;;;;;2.42;1.70;;;;;;;14.84;91.75;101904.41;5077378;28;20036;-73
2023/06/27 00:06:29;;;;;;;4.05;1.80;;;;;;;14.80;91.91;101907.22;5079801;28;20062;-73
2023/06/27 00:09:15;;;;;;;2.08;1.30;;;;;;;14.76;92.63;101896.78;5081494;28;20123;-73
2023/06/27 00:12:01;;;;;;;3.08;1.90;;;;;;;14.73;92.25;101895.09;5048768;28;20044;-73
2023/06/27 00:14:47;;;;;;;2.78;1.55;;;;;;;14.71;93.19;101899.59;5076004;28;20057;-73
2023/06/27 00:17:37;;;;;;;3.05;1.85;;;;;;;14.70;93.12;101897.88;5048454;28;20402;-74
2023/06/27 00:20:22;;;;;;;3.88;1.40;;;;;;;14.67;93.68;101888.22;5061695;28;20036;-72
2023/06/27 00:23:16;;;;;;;2.53;1.65;;;;;;;14.66;94.04;101891.84;5075983;28;20074;-72
2023/06/27 00:26:03;;;;;;;4.40;1.70;;;;;;;14.64;93.73;101891.03;5064220;28;20039;-73
2023/06/27 00:28:48;;;;;;;4.90;1.70;;;;;;;14.64;93.63;101903.50;5062313;28;20044;-73
2023/06/27 00:31:34;;;;;;;3.50;2.10;;;;;;;14.62;94.06;101894.72;5060905;28;20040;-73
2023/06/27 00:34:20;;;;;;;3.88;1.80;;;;;;;14.61;94.06;101898.31;5075563;28;20402;-73
2023/06/27 00:37:06;;;;;;;4.90;2.35;;;;;;;14.59;94.63;101898.38;5062904;28;20043;-73
2023/06/27 00:39:51;;;;;;;3.55;1.88;;;;;;;14.59;94.52;101892.19;5061691;28;20067;-73
2023/06/27 00:42:37;;;;;;;3.10;2.05;;;;;;;14.58;94.90;101893.09;5048471;28;20482;-73
2023/06/27 00:45:23;;;;;;;3.88;2.00;;;;;;;14.58;94.74;101890.44;5046838;28;20132;-73
2023/06/27 00:48:12;;;;;;;3.72;1.95;;;;;;;14.58;95.02;101898.44;5075701;28;20074;-72
2023/06/27 00:50:58;;;;;;;3.60;2.22;;;;;;;14.56;95.63;101900.31;5060772;28;20144;-72
2023/06/27 00:53:44;;;;;;;3.08;1.95;;;;;;;14.55;95.68;101888.81;5074223;28;20070;-72
2023/06/27 00:56:30;;;;;;;2.83;1.77;;;;;;;14.52;96.18;101889.81;5054360;28;20044;-72
2023/06/27 00:59:16;;;;;;;3.08;2.08;;;;;;;14.53;96.73;101902.19;5072685;28;20044;-73
2023/06/27 01:02:03;;;;;;;3.58;2.08;;;;;;;14.52;96.50;101899.59;5054635;28;20036;-73
2023/06/27 01:04:48;;;;;;;3.55;2.10;;;;;;;14.50;96.65;101901.47;5055617;28;20040;-73
2023/06/27 01:07:41;;;;;;;4.60;2.30;;;;;;;14.48;96.87;101898.88;5053809;28;20032;-73
2023/06/27 01:10:47;;;;;;;2.50;2.28;;;;;;;14.48;98.65;101892.66;5068720;28;20039;-72
2023/06/27 01:13:39;;;;;;;4.47;2.45;;;;;;;14.45;97.29;101899.03;5058177;28;20047;-73
2023/06/27 01:16:29;;;;;;;3.25;2.45;;;;;;;14.43;97.42;101898.22;5044417;28;20441;-73
2023/06/27 01:19:17;;;;;;;2.50;2.13;;;;;;;14.40;97.55;101901.03;5038877;28;22014;-72
2023/06/27 01:22:05;;;;;;;3.30;2.30;;;;;;;14.38;96.86;101905.53;5058037;28;20067;-73
2023/06/27 01:24:51;;;;;;;3.20;2.00;;;;;;;14.35;97.13;101901.22;5057685;28;20044;-73
2023/06/27 01:27:38;;;;;;;3.25;2.35;;;;;;;14.35;97.41;101903.03;5057748;28;20032;-73
2023/06/27 01:30:23;;;;;;;2.75;2.00;;;;;;;14.32;96.82;101903.16;5073671;28;20036;-73
2023/06/27 01:33:21;;;;;;;5.40;2.30;;;;;;;14.30;97.89;101897.03;5059641;28;20045;-73
2023/06/27 01:36:10;;;;;;;5.05;2.58;;;;;;;14.29;97.28;101901.50;5053599;28;20036;-72
2023/06/27 01:39:10;;;;;;;4.43;2.58;;;;;;;14.26;97.72;101902.50;5053685;28;20454;-72
2023/06/27 01:42:01;;;;;;;4.57;1.95;;;;;;;14.25;96.87;101894.56;5051336;28;20058;-72
2023/06/27 01:44:48;;;;;;;4.22;2.50;;;;;;;14.23;96.91;101888.47;5055206;28;20398;-72
2023/06/27 01:47:36;;;;;;;3.53;2.28;;;;;;;14.22;96.83;101892.91;5069739;28;20058;-72
2023/06/27 01:50:22;;;;;;;3.20;2.28;;;;;;;14.20;96.80;101891.25;5052593;28;21745;-72
2023/06/27 01:53:08;;;;;;;4.47;2.50;;;;;;;14.16;97.15;101887.84;5056360;28;20063;-72
2023/06/27 01:55:54;;;;;;;4.30;2.20;;;;;;;14.15;97.12;101893.25;5075467;28;20043;-72
2023/06/27 01:58:40;;;;;;;3.92;2.63;;;;;;;14.13;96.95;101888.00;5069232;28;20059;-72
2023/06/27 02:01:26;;;;;;;3.88;2.40;;;;;;;14.13;96.95;101888.00;5053958;28;21919;-73
2023/06/27 02:04:11;;;;;;;4.80;2.53;;;;;;;14.10;96.96;101890.78;5057752;28;20048;-73
2023/06/27 02:06:59;;;;;;;4.32;2.53;;;;;;;14.10;97.05;101885.44;5072027;28;20058;-72
2023/06/27 02:09:45;;;;;;;4.40;2.63;;;;;;;14.08;97.07;101890.00;5053812;28;20036;-72
2023/06/27 02:12:31;;;;;;;5.75;2.63;;;;;;;14.06;97.59;101881.22;5071460;28;20399;-72
2023/06/27 02:15:16;;;;;;;5.65;2.45;;;;;;;14.05;97.83;101885.66;5071362;28;20103;-72
2023/06/27 02:18:04;;;;;;;3.97;2.28;;;;;;;14.05;97.90;101883.00;5073664;28;20044;-73
2023/06/27 02:20:49;;;;;;;6.95;2.85;;;;;;;14.04;97.89;101885.72;5070270;28;20237;-73
2023/06/27 02:23:35;;;;;;;3.92;2.42;;;;;;;14.02;97.88;101879.59;5055990;28;20041;-73
2023/06/27 02:26:21;;;;;;;3.72;2.30;;;;;;;13.99;97.85;101878.81;5072102;28;20074;-73
2023/06/27 02:29:07;;;;;;;4.57;2.65;;;;;;;13.99;97.86;101876.16;5054798;28;20047;-72
2023/06/27 02:31:52;;;;;;;3.50;2.35;;;;;;;13.97;97.65;101883.34;5073264;28;20045;-73
2023/06/27 02:34:38;;;;;;;4.05;2.42;;;;;;;13.95;98.11;101879.03;5045130;28;20126;-73
2023/06/27 02:37:24;;;;;;;3.08;2.38;;;;;;;13.94;98.77;101882.63;5071387;28;20047;-72
2023/06/27 02:40:10;;;;;;;3.65;2.30;;;;;;;13.92;98.22;101884.47;5054875;28;20060;-73
2023/06/27 02:42:55;;;;;;;3.40;2.60;;;;;;;13.93;98.20;101883.53;5072185;28;21990;-73
2023/06/27 02:45:41;;;;;;;2.85;2.58;;;;;;;13.92;98.23;101888.00;5073195;28;20032;-73
2023/06/27 02:48:30;;;;;;;2.85;2.20;;;;;;;13.90;98.47;101889.84;5056966;28;20051;-73
2023/06/27 02:51:16;;;;;;;3.33;2.33;;;;;;;13.89;98.67;101885.44;5058144;28;20137;-73
2023/06/27 02:54:02;;;;;;;3.30;2.15;;;;;;;13.89;98.60;101885.44;5053698;28;20581;-72
2023/06/27 02:56:48;;;;;;;3.80;2.60;;;;;;;13.88;99.37;101888.19;5055915;28;20035;-73
2023/06/27 02:59:33;;;;;;;4.43;2.45;;;;;;;13.87;99.23;101882.00;5074538;28;20098;-73
2023/06/27 03:02:19;;;;;;;2.70;2.13;;;;;;;13.86;100.00;101880.28;5072893;28;20564;-71
2023/06/27 03:05:05;;;;;;;2.70;2.33;;;;;;;13.84;100.00;101883.00;5072032;28;20624;-72
2023/06/27 03:07:50;;;;;;;3.60;2.42;;;;;;;13.85;100.00;101881.22;5057500;28;20173;-72
2023/06/27 03:10:36;;;;;;;3.85;2.22;;;;;;;13.83;100.00;101875.94;5054373;28;20036;-73
2023/06/27 03:13:22;;;;;;;3.72;2.72;;;;;;;13.82;100.00;101886.66;5055800;28;20035;-73
2023/06/27 03:16:08;;;;;;;7.07;2.92;;;;;;;13.82;100.00;101887.53;5071049;28;20036;-73
2023/06/27 03:18:54;;;;;;;2.45;2.10;;;;;;;13.82;100.00;101889.31;5055052;28;20039;-73
2023/06/27 03:21:39;;;;;;;6.43;2.90;;;;;;;13.83;100.00;101885.72;5070935;28;20032;-73
2023/06/27 03:24:25;;;;;;;6.15;2.78;;;;;;;13.83;100.00;101883.06;5053161;28;20044;-73
2023/06/27 03:27:13;;;;;;;5.35;2.70;;;;;;;13.83;100.00;101878.59;5058664;28;20395;-73
2023/06/27 03:29:59;;;;;;;3.33;2.42;;;;;;;13.85;100.00;101875.88;5076771;28;20079;-73
2023/06/27 03:32:44;;;;;;;6.15;2.45;;;;;;;13.86;100.00;101880.28;5056033;28;20035;-73
2023/06/27 03:35:30;;;;;;;4.47;2.30;;;;;;;13.88;100.00;101877.56;5058242;28;20089;-73
2023/06/27 03:38:16;;;;;;;3.95;2.17;;;;;;;13.89;100.00;101869.47;5072089;28;20140;-73
2023/06/27 03:41:01;;;;;;;5.47;2.15;;;;;;;13.91;100.00;101872.09;5071435;28;20060;-72
2023/06/27 03:43:47;;;;;;;3.10;2.50;;;;;;;13.92;100.00;101869.38;5043910;28;20064;-73
2023/06/27 03:46:33;;;;;;;5.57;2.30;;;;;;;13.94;100.00;101872.81;5057487;28;21318;-73
2023/06/27 03:49:19;;;;;;;4.30;2.67;;;;;;;13.95;100.00;101881.69;5070331;28;20157;-73
2023/06/27 03:52:04;;;;;;;3.22;2.72;;;;;;;13.96;100.00;101881.59;5071199;28;20043;-72
2023/06/27 03:54:50;;;;;;;6.97;2.53;;;;;;;13.96;100.00;101880.75;5072757;28;20067;-72
2023/06/27 03:57:36;;;;;;;4.40;2.45;;;;;;;13.98;100.00;101884.19;5072666;28;20047;-72
2023/06/27 04:00:22;;;;;;;4.05;2.65;;;;;;;13.99;100.00;101869.94;5076350;28;20071;-72
2023/06/27 04:03:07;;;;;;;3.85;2.80;;;;;;;14.01;100.00;101877.88;5058532;28;20039;-72
2023/06/27 04:05:53;;;;;;;5.60;2.92;;;;;;;14.03;100.00;101876.00;5075955;28;20063;-72
2023/06/27 04:08:39;;;;;;;4.50;2.50;;;;;;;14.05;100.00;101871.50;5072728;28;20074;-71
2023/06/27 04:11:24;;;;;;;5.43;3.10;;;;;;;14.09;100.00;101881.06;5054108;28;20044;-72
2023/06/27 04:14:10;;;;;;;3.75;2.28;;;;;;;14.10;100.00;101881.00;5071002;28;20515;-72
2023/06/27 04:16:56;;;;;;;3.72;2.60;;;;;;;14.15;100.00;101883.47;5045620;28;20371;-71
2023/06/27 04:19:42;;;;;;;5.88;2.65;;;;;;;14.20;100.00;101883.25;5070913;28;20039;-71
2023/06/27 04:22:27;;;;;;;4.07;2.60;;;;;;;14.24;100.00;101883.06;5072465;28;20057;-73
2023/06/27 04:25:13;;;;;;;4.93;2.55;;;;;;;14.29;100.00;101876.66;5056284;28;20556;-72
2023/06/27 04:27:59;;;;;;;2.85;2.33;;;;;;;14.36;100.00;101883.44;5072461;28;20571;-71
2023/06/27 04:30:45;;;;;;;3.22;2.17;;;;;;;14.42;100.00;101877.00;5071305;28;20041;-72
2023/06/27 04:33:31;;;;;;;3.55;2.08;;;;;;;14.50;100.00;101874.84;5073321;28;20043;-73
2023/06/27 04:36:20;;;;;;;6.10;2.20;;;;;;;14.57;100.00;101876.28;5070601;28;20526;-73
2023/06/27 04:39:05;;;;;;;4.50;1.90;;;;;;;14.64;100.00;101877.72;5058581;28;20106;-73
2023/06/27 04:41:51;;;;;;;4.82;2.33;;;;;;;14.73;100.00;101875.56;5072969;28;20048;-73
2023/06/27 04:44:37;;;;;;;2.10;1.90;;;;;;;14.78;100.00;101879.75;5071056;28;20104;-72
2023/06/27 04:47:23;;;;;;;3.17;1.83;;;;;;;14.89;100.00;101883.75;5071288;28;20486;-73
2023/06/27 04:50:11;;;;;;;3.13;1.45;;;;;;;14.96;100.00;101882.50;5055381;28;20164;-73
2023/06/27 04:52:56;;;;;;;2.70;1.88;;;;;;;15.04;100.00;101879.47;5072078;28;20036;-73
2023/06/27 04:55:43;;;;;;;3.30;1.80;;;;;;;15.13;100.00;101878.16;5056337;28;20040;-73
2023/06/27 04:58:28;;;;;;;4.65;1.80;;;;;;;15.23;100.00;101881.25;5072493;28;20032;-72
2023/06/27 05:01:14;;;;;;;6.82;1.90;;;;;;;15.31;100.00;101876.41;5044287;28;20229;-73
2023/06/27 05:04:04;;;;;;;3.10;1.88;;;;;;;15.42;100.00;101878.56;5075136;28;20952;-72
2023/06/27 05:06:49;;;;;;;4.45;1.70;;;;;;;15.51;100.00;101879.91;5072879;28;20367;-72
2023/06/27 05:09:35;;;;;;;2.00;1.38;;;;;;;15.60;100.00;101882.09;5070890;28;20151;-72
2023/06/27 05:12:21;;;;;;;2.92;1.50;;;;;;;15.71;100.00;101890.44;5055635;28;21017;-74
2023/06/27 05:15:07;;;;;;;4.20;1.45;;;;;;;15.83;100.00;101886.28;5070688;28;20038;-73
2023/06/27 05:18:15;;;;;;;3.28;1.42;;;;;;;15.96;100.00;101893.69;5070782;28;20031;-73
2023/06/27 05:21:00;;;;;;;6.30;1.70;;;;;;;16.10;100.00;101891.16;5072178;28;20036;-73
2023/06/27 05:23:46;;;;;;;5.03;1.55;;;;;;;16.21;100.00;101893.25;5072444;28;20044;-74
2023/06/27 05:26:32;;;;;;;2.35;1.33;;;;;;;16.33;100.00;101897.09;5056639;28;20040;-73
2023/06/27 05:29:18;;;;;;;3.13;1.40;;;;;;;16.45;100.00;101886.69;5059171;28;20044;-73
2023/06/27 05:32:04;;;;;;;3.00;1.38;;;;;;;16.54;100.00;101894.19;5075546;28;20035;-73
2023/06/27 05:34:50;;;;;;;2.47;1.17;;;;;;;16.65;100.00;101894.50;5059689;28;20062;-73
2023/06/27 05:37:35;;;;;;;3.42;1.30;;;;;;;16.80;100.00;101890.13;5060044;28;20467;-73
2023/06/27 05:40:21;;;;;;;4.15;1.52;;;;;;;16.95;100.00;101888.38;5076975;28;20614;-73
2023/06/27 05:43:08;;;;;;;3.13;1.10;;;;;;;17.14;100.00;101878.47;5076459;28;20040;-73
2023/06/27 05:45:54;;;;;;;3.25;1.30;;;;;;;17.32;100.00;101879.25;5082380;28;20048;-73
2023/06/27 05:48:40;;;;;;;1.13;0.90;;;;;;;17.54;100.00;101883.34;5074351;28;20101;-73
2023/06/27 05:51:26;;;;;;;1.52;1.00;;;;;;;17.78;100.00;101886.41;5080018;28;20047;-78
2023/06/27 05:54:11;;;;;;;3.15;1.00;;;;;;;18.00;100.00;101880.63;5077697;28;20036;-75
2023/06/27 05:57:00;;;;;;;3.45;1.40;;;;;;;18.25;99.55;101879.13;5080389;28;20041;-76
2023/06/27 05:59:46;;;;;;;3.13;1.02;;;;;;;18.52;98.11;101882.88;5078953;28;20039;-77
2023/06/27 06:02:32;;;;;;;3.25;0.90;;;;;;;18.79;96.39;101876.72;5079340;28;20070;-77
2023/06/27 06:05:18;;;;;;;1.67;0.90;;;;;;;19.06;94.52;101879.44;5077296;28;20759;-78
2023/06/27 06:08:04;;;;;;;2.25;1.05;;;;;;;19.34;93.44;101877.63;5080152;28;20050;-76
2023/06/27 06:10:50;;;;;;;2.80;0.90;;;;;;;19.62;92.04;101875.75;5078830;28;20032;-75
2023/06/27 06:13:36;;;;;;;1.52;0.88;;;;;;;19.91;90.62;101882.81;5074828;28;20039;-76
2023/06/27 06:16:23;;;;;;;1.20;0.70;;;;;;;20.16;88.25;101883.84;5079081;28;20525;-76
2023/06/27 06:19:11;;;;;;;1.60;0.68;;;;;;;20.35;85.76;101888.75;5064006;28;20170;-78
2023/06/27 06:21:59;;;;;;;5.13;1.15;;;;;;;20.52;83.58;101884.03;5064118;28;20043;-76
2023/06/27 06:24:45;;;;;;;4.40;1.52;;;;;;;20.75;83.02;101883.22;5078453;28;20391;-76
2023/06/27 06:27:31;;;;;;;5.18;0.90;;;;;;;20.98;79.91;101879.84;5081821;28;20114;-76
2023/06/27 06:30:16;;;;;;;1.58;0.75;;;;;;;21.12;78.38;101887.75;5062259;28;20038;-77
2023/06/27 06:33:02;;;;;;;2.92;1.08;;;;;;;21.26;78.22;101893.94;5059418;28;20040;-76
2023/06/27 06:35:48;;;;;;;2.63;0.90;;;;;;;21.29;75.57;101893.72;5059650;28;20771;-81
2023/06/27 06:38:34;;;;;;;1.48;0.60;;;;;;;21.22;72.81;101898.72;5050991;28;20039;-76
2023/06/27 06:41:20;;;;;;;1.25;0.63;;;;;;;21.16;72.78;101899.16;5080034;28;20141;-75
2023/06/27 06:44:06;;;;;;;2.65;0.85;;;;;;;21.02;72.51;101901.03;5049030;28;20055;-77
2023/06/27 06:46:53;;;;;;;0.85;0.60;;;;;;;20.86;72.21;101908.53;5060823;28;20040;-76
2023/06/27 06:49:38;;;;;;;2.13;0.70;;;;;;;20.77;72.43;101910.84;5045536;28;20135;-75
2023/06/27 06:52:24;;;;;;;2.38;0.75;;;;;;;20.70;72.76;101912.28;5062649;28;20105;-75
2023/06/27 06:55:10;;;;;;;1.17;0.65;;;;;;;20.65;72.74;101906.38;5076685;28;20456;-74
2023/06/27 06:57:57;;;;;;;1.13;0.63;;;;;;;20.62;71.21;101909.28;5063675;28;20547;-77
2023/06/27 07:00:42;;;;;;;3.22;0.82;;;;;;;20.65;72.97;101914.47;5061600;28;20047;-75
2023/06/27 07:03:28;;;;;;;2.20;0.60;;;;;;;20.59;71.42;101907.66;5077407;28;20782;-77
2023/06/27 07:06:15;;;;;;;2.40;0.70;;;;;;;20.57;72.42;101909.63;5075896;28;20040;-75
2023/06/27 07:09:00;;;;;;;2.75;0.80;;;;;;;20.62;72.95;101915.53;5079217;28;20931;-74
2023/06/27 07:11:48;;;;;;;7.15;3.28;;;;;;;20.68;73.07;101916.91;5059467;28;21087;-76
2023/06/27 07:14:33;;;;;;;3.38;1.40;;;;;;;20.68;73.00;101911.53;5078389;28;20028;-75
2023/06/27 07:17:19;;;;;;;3.72;0.80;;;;;;;20.67;72.99;101909.81;5070986;28;20040;-76
2023/06/27 07:20:10;;;;;;;3.58;0.73;;;;;;;20.64;72.51;101915.41;5057258;28;20066;-74
2023/06/27 07:22:56;;;;;;;1.30;0.60;;;;;;;20.58;72.28;101915.84;5046617;28;20092;-76
2023/06/27 07:25:41;;;;;;;1.05;0.80;;;;;;;20.52;72.94;101916.31;5073476;28;20040;-77
2023/06/27 07:28:30;;;;;;;1.20;0.65;;;;;;;20.44;73.82;101914.16;5071629;28;20042;-75
2023/06/27 07:31:16;;;;;;;4.45;0.90;;;;;;;20.38;74.92;101919.97;5069940;28;20508;-77
2023/06/27 07:34:02;;;;;;;2.17;0.73;;;;;;;20.37;75.14;101918.25;5054917;28;20075;-74
2023/06/27 07:36:48;;;;;;;2.22;1.02;;;;;;;20.31;75.65;101915.00;5072302;28;20039;-74
2023/06/27 07:39:33;;;;;;;2.92;0.70;;;;;;;20.33;75.70;101913.06;5079320;28;20031;-75
2023/06/27 07:42:19;;;;;;;3.65;0.82;;;;;;;20.42;76.25;101922.31;5058033;28;20094;-75
2023/06/27 07:45:06;;;;;;;2.85;0.80;;;;;;;20.47;76.38;101914.78;5056745;28;20044;-76
2023/06/27 07:47:51;;;;;;;3.33;0.90;;;;;;;20.51;76.09;101909.19;5029320;28;20044;-75
2023/06/27 07:50:41;;;;;;;4.90;0.90;;;;;;;20.56;76.69;101917.78;5058789;28;20577;-78
2023/06/27 07:53:30;;;;;;;2.38;0.88;;;;;;;20.55;77.07;101916.94;5056090;28;20036;-75
2023/06/27 07:56:16;;;;;;;3.20;0.85;;;;;;;20.56;77.31;101907.03;5055549;28;20037;-73
2023/06/27 07:59:04;;;;;;;2.83;1.02;;;;;;;20.68;76.94;101918.72;5059668;28;20063;-76
2023/06/27 08:01:50;;;;;;;3.00;0.80;;;;;;;20.86;77.47;101920.13;5053972;28;20101;-76
2023/06/27 08:04:35;;;;;;;2.90;0.73;;;;;;;21.13;75.95;101923.63;5056244;28;20111;-75
2023/06/27 08:07:23;;;;;;;3.00;0.82;;;;;;;21.31;75.32;101929.47;5053401;28;20047;-76
2023/06/27 08:10:11;;;;;;;2.78;0.80;;;;;;;21.51;75.23;101927.13;5051130;28;20108;-74
2023/06/27 08:12:58;;;;;;;2.80;0.60;;;;;;;21.75;74.15;101929.84;5041931;28;20051;-77
2023/06/27 08:15:44;;;;;;;2.30;0.75;;;;;;;21.86;73.08;101918.22;5058094;28;20507;-78
2023/06/27 08:18:41;;;;;;;2.55;0.80;;;;;;;22.00;73.16;101921.69;5057044;28;20112;-77
2023/06/27 08:21:27;;;;;;;1.95;0.82;;;;;;;22.11;72.10;101922.56;5047408;28;20037;-71
2023/06/27 08:24:12;;;;;;;1.65;0.93;;;;;;;22.14;69.58;101926.00;5046341;28;20040;-72
2023/06/27 08:26:58;;;;;;;1.95;0.90;;;;;;;22.06;69.97;101922.06;5045966;28;20033;-71
2023/06/27 08:29:45;;;;;;;1.77;0.80;;;;;;;22.01;70.40;101926.09;5027820;28;20080;-71
2023/06/27 08:32:31;;;;;;;1.95;0.60;;;;;;;21.91;68.74;101925.94;5046251;28;20190;-71
2023/06/27 08:35:17;;;;;;;4.45;0.95;;;;;;;21.84;68.57;101920.16;5044134;28;20657;-71
2023/06/27 08:38:03;;;;;;;3.63;1.80;;;;;;;21.76;69.77;101915.38;5040142;28;20036;-71
2023/06/27 08:40:53;;;;;;;1.48;0.70;;;;;;;21.66;68.32;101917.00;5052491;28;20067;-70
2023/06/27 08:43:39;;;;;;;2.83;0.90;;;;;;;21.62;68.05;101927.16;5065746;28;20104;-72
2023/06/27 08:46:27;;;;;;;1.75;0.70;;;;;;;21.49;68.33;101916.47;5053137;28;20035;-72
2023/06/27 08:49:20;;;;;;;1.73;0.70;;;;;;;21.36;67.83;101921.91;5067510;28;20048;-71
2023/06/27 08:52:07;;;;;;;2.17;0.80;;;;;;;21.30;68.61;101923.22;5066849;28;20066;-72
2023/06/27 08:54:55;;;;;;;3.08;0.80;;;;;;;21.28;70.11;101919.78;5047301;28;20044;-72
2023/06/27 08:57:41;;;;;;;2.55;0.80;;;;;;;21.33;70.80;101914.06;5034270;28;20032;-70
2023/06/27 09:00:29;;;;;;;3.38;0.90;;;;;;;21.38;70.79;101913.72;5038684;28;20055;-70
2023/06/27 09:03:16;;;;;;;1.92;0.65;;;;;;;21.38;71.14;101919.09;5048139;28;20032;-71
2023/06/27 09:06:04;;;;;;;1.52;0.85;;;;;;;21.42;70.76;101917.91;5066552;28;20506;-72
2023/06/27 09:08:50;;;;;;;5.38;1.00;;;;;;;21.36;70.64;101919.19;5053933;28;20074;-71
2023/06/27 09:11:36;;;;;;;2.03;0.60;;;;;;;21.37;69.70;101917.38;5067126;28;20036;-71
2023/06/27 09:14:22;;;;;;;2.38;0.90;;;;;;;21.39;69.00;101919.00;5068080;28;20043;-72
2023/06/27 09:17:08;;;;;;;3.28;0.90;;;;;;;21.47;69.56;101931.91;5052402;28;20075;-71
2023/06/27 09:19:54;;;;;;;3.67;0.70;;;;;;;21.57;69.31;101932.03;5065116;28;20089;-72
2023/06/27 09:22:40;;;;;;;1.85;0.73;;;;;;;21.67;68.72;101921.41;5073951;28;20121;-73
2023/06/27 09:25:26;;;;;;;3.67;0.75;;;;;;;21.68;67.82;101921.31;5068699;28;20052;-72
2023/06/27 09:28:16;;;;;;;4.80;0.80;;;;;;;21.81;67.22;101918.59;5066090;28;20100;-72
2023/06/27 09:31:05;;;;;;;2.05;0.90;;;;;;;21.94;66.78;101920.31;5055912;28;20122;-82
2023/06/27 09:33:53;;;;;;;1.67;0.68;;;;;;;22.07;66.89;101926.47;5071236;28;20067;-85
2023/06/27 09:36:42;;;;;;;2.38;0.60;;;;;;;22.18;64.51;101927.47;5063237;28;20036;-85
2023/06/27 09:39:28;;;;;;;1.42;0.68;;;;;;;22.24;65.69;101927.00;5073544;28;20036;-84
2023/06/27 09:42:14;;;;;;;2.03;0.73;;;;;;;22.29;64.23;101930.22;5059123;28;20052;-88
2023/06/27 09:45:15;;;;;;;2.35;0.70;;;;;;;22.33;60.59;101925.44;5073225;28;20122;-81
2023/06/27 09:48:01;;;;;;;1.27;0.70;;;;;;;22.50;63.43;101932.19;5058608;28;20823;-83
2023/06/27 09:50:47;;;;;;;2.42;0.68;;;;;;;22.46;61.64;101928.88;5059772;28;20509;-85
2023/06/27 09:53:33;;;;;;;1.23;0.57;;;;;;;22.42;61.73;101932.78;5034418;28;20613;-82
2023/06/27 09:56:33;;;;;;;3.47;0.90;;;;;;;22.35;59.07;101932.38;5077467;28;20085;-86
2023/06/27 09:59:21;;;;;;;2.28;1.30;;;;;;;22.38;60.87;101932.16;5065201;28;20060;-83
2023/06/27 10:02:14;;;;;;;1.85;0.77;;;;;;;22.60;57.63;101918.84;5078496;28;20040;-77
2023/06/27 10:04:59;;;;;;;1.80;0.80;;;;;;;22.68;58.76;101927.19;5049414;28;20040;-86
2023/06/27 10:07:46;;;;;;;1.60;0.75;;;;;;;22.70;58.51;101935.16;5050267;28;20431;-85
2023/06/27 10:10:32;;;;;;;0.93;0.75;;;;;;;22.64;59.25;101923.00;5048260;28;20036;-85
2023/06/27 10:13:18;;;;;;;3.00;0.90;;;;;;;22.83;59.49;101921.53;5057223;28;22216;-87
2023/06/27 10:16:05;;;;;;;1.83;0.70;;;;;;;23.03;58.77;101922.59;5040051;28;20508;-86
2023/06/27 10:18:52;;;;;;;1.95;0.80;;;;;;;23.14;59.15;101927.97;5061247;28;20032;-87
2023/06/27 10:21:38;;;;;;;3.13;1.10;;;;;;;23.08;59.04;101927.63;5060822;28;20090;-85
2023/06/27 10:24:25;;;;;;;2.38;0.70;;;;;;;22.98;57.36;101925.66;5071705;28;20032;-83
2023/06/27 10:27:18;;;;;;;1.25;0.60;;;;;;;22.82;56.73;101927.91;5057306;28;20040;-76
2023/06/27 10:30:12;;;;;;;2.47;0.60;;;;;;;22.74;58.67;101918.59;5072733;28;20040;-77
2023/06/27 10:33:28;;;;;;;1.85;0.80;;;;;;;22.96;56.42;101932.16;5069798;28;20567;-77
2023/06/27 10:36:14;;;;;;;3.63;0.70;;;;;;;23.01;58.26;101928.13;5072989;28;20033;-77
2023/06/27 10:39:00;;;;;;;3.30;0.80;;;;;;;23.13;58.58;101920.84;5072437;28;20033;-79
2023/06/27 10:41:47;;;;;;;2.40;0.88;;;;;;;23.15;56.80;101916.19;5058021;28;20055;-79
2023/06/27 10:44:59;;;;;;;2.20;0.88;;;;;;;23.15;54.24;101923.44;5062237;28;20044;-79
2023/06/27 10:47:45;;;;;;;1.58;0.80;;;;;;;23.19;56.84;101924.88;5075927;28;20115;-79
2023/06/27 10:50:35;;;;;;;2.85;0.80;;;;;;;23.27;54.59;101935.06;5060201;28;20032;-84
2023/06/27 10:53:21;;;;;;;2.05;0.70;;;;;;;23.33;56.55;101926.47;5051862;28;20044;-80
2023/06/27 10:56:16;;;;;;;2.22;0.60;;;;;;;23.38;53.91;101937.78;5080860;28;20509;-86
2023/06/27 10:59:04;;;;;;;2.40;0.65;;;;;;;23.20;55.67;101940.97;5064320;28;20444;-82
2023/06/27 11:01:51;;;;;;;1.90;0.70;;;;;;;23.09;56.08;101935.59;5079455;28;20036;-80
2023/06/27 11:04:41;;;;;;;2.45;0.77;;;;;;;23.02;57.01;101942.47;5080036;28;20058;-76
2023/06/27 11:07:36;;;;;;;2.08;0.80;;;;;;;23.00;56.77;101939.03;5067274;28;20040;-80
2023/06/27 11:10:25;;;;;;;4.07;0.80;;;;;;;23.12;57.62;101937.19;5061518;28;20044;-81
2023/06/27 11:13:13;;;;;;;2.60;0.70;;;;;;;23.19;57.02;101928.44;5064080;28;20027;-77
2023/06/27 11:15:59;;;;;;;1.17;0.68;;;;;;;23.20;55.67;101945.50;5079698;28;20502;-78
2023/06/27 11:18:45;;;;;;;1.35;0.60;;;;;;;23.08;56.15;101931.16;5074685;28;20127;-80
2023/06/27 11:21:31;;;;;;;2.72;0.75;;;;;;;23.21;55.80;101936.44;5049007;28;20556;-78
2023/06/27 11:24:17;;;;;;;2.08;0.70;;;;;;;23.22;54.72;101939.97;5077349;28;20043;-77
2023/06/27 11:27:07;;;;;;;1.52;0.60;;;;;;;23.13;53.28;101939.75;5057249;28;20040;-80
2023/06/27 11:29:59;;;;;;;3.33;0.70;;;;;;;23.10;53.20;101940.00;5059656;28;20140;-80
2023/06/27 11:32:45;;;;;;;2.55;0.63;;;;;;;23.11;52.71;101941.72;5047037;28;20035;-82
2023/06/27 11:35:31;;;;;;;1.02;0.60;;;;;;;23.06;53.55;101930.44;5061611;28;20460;-81
2023/06/27 11:38:18;;;;;;;1.48;0.70;;;;;;;23.16;54.30;101934.09;5062238;28;20135;-84
2023/06/27 11:41:04;;;;;;;1.55;1.05;;;;;;;23.17;52.46;101932.25;5076131;28;20509;-83
2023/06/27 11:43:50;;;;;;;2.90;0.93;;;;;;;23.17;53.27;101925.03;5054114;28;20571;-80
2023/06/27 11:46:47;;;;;;;2.15;0.80;;;;;;;23.13;51.59;101926.25;5063822;28;20044;-82
2023/06/27 11:49:34;;;;;;;1.40;0.70;;;;;;;23.02;53.04;101926.28;5079792;28;20036;-81
2023/06/27 11:52:30;;;;;;;2.10;0.73;;;;;;;22.96;50.90;101926.78;5079087;28;20144;-80
2023/06/27 11:55:16;;;;;;;1.33;0.73;;;;;;;22.76;52.58;101924.72;5063680;28;20059;-85
2023/06/27 11:58:02;;;;;;;2.10;0.60;;;;;;;22.59;52.90;101931.47;5077711;28;20055;-78
2023/06/27 12:00:50;;;;;;;2.25;0.70;;;;;;;22.47;53.11;101929.72;5079248;28;20050;-78
2023/06/27 12:03:38;;;;;;;2.03;0.73;;;;;;;22.34;51.71;101932.53;5076918;28;22068;-81
2023/06/27 12:06:24;;;;;;;1.88;0.73;;;;;;;22.18;52.71;101933.72;5055348;28;20126;-80
2023/06/27 12:09:20;;;;;;;0.73;0.60;;;;;;;22.16;53.15;101932.16;5071135;28;20044;-80
2023/06/27 12:12:06;;;;;;;3.60;0.85;;;;;;;22.18;54.29;101932.88;5073559;28;20113;-81
2023/06/27 12:14:52;;;;;;;0.90;0.60;;;;;;;22.23;54.55;101922.59;5048689;28;20381;-84
2023/06/27 12:17:37;;;;;;;2.60;0.77;;;;;;;22.19;53.66;101916.59;5072436;28;20356;-74
2023/06/27 12:20:24;;;;;;;1.40;0.60;;;;;;;22.19;52.92;101935.47;5073477;28;20472;-86
2023/06/27 12:23:10;;;;;;;2.63;0.80;;;;;;;22.19;53.16;101923.81;5046284;28;20048;-84
2023/06/27 12:25:59;;;;;;;1.30;0.60;;;;;;;22.17;54.28;101925.78;5071764;28;20036;-79
2023/06/27 12:28:58;;;;;;;2.72;0.70;;;;;;;22.10;52.83;101933.47;5061406;28;20101;-79
2023/06/27 12:32:04;;;;;;;3.30;0.95;;;;;;;22.14;55.35;101928.69;5075623;28;20032;-85
2023/06/27 12:34:51;;;;;;;1.17;0.70;;;;;;;22.33;56.86;101928.13;5074984;28;20040;-74
2023/06/27 12:37:37;;;;;;;3.00;1.10;;;;;;;22.42;56.52;101923.81;5074359;28;20047;-75
2023/06/27 12:40:27;;;;;;;2.70;1.40;;;;;;;22.42;55.90;101924.69;5055541;28;20040;-74
2023/06/27 12:43:15;;;;;;;1.77;0.90;;;;;;;22.48;55.01;101936.81;5055513;28;20070;-77
2023/06/27 12:46:01;;;;;;;2.53;0.63;;;;;;;22.45;54.68;101932.53;5056475;28;20489;-76
2023/06/27 12:48:47;;;;;;;2.47;0.63;;;;;;;22.37;55.25;101938.53;5055684;28;20043;-73
2023/06/27 12:51:34;;;;;;;2.10;0.60;;;;;;;22.21;54.88;101928.09;5074290;28;20048;-76
2023/06/27 12:54:19;;;;;;;2.00;0.93;;;;;;;22.22;55.81;101937.06;5045003;28;20039;-74
2023/06/27 12:57:08;;;;;;;1.38;0.57;;;;;;;22.27;55.66;101926.75;5074100;28;20059;-76